createdAt,value
2022-12-16T00:01:32.617Z,94.56
2022-12-16T00:04:54.600Z,95.08
2022-12-16T00:08:16.407Z,95.52
2022-12-16T00:11:38.254Z,95.45
2022-12-16T00:15:00.323Z,96.31
2022-12-16T00:18:36.334Z,96.95
2022-12-16T00:21:58.381Z,97.01
2022-12-16T00:25:22.261Z,97.48
2022-12-16T00:28:47.374Z,98.26
2022-12-16T00:32:09.268Z,98.39
2022-12-16T00:35:31.508Z,98.79
2022-12-16T00:38:53.567Z,98.88
2022-12-16T00:42:15.437Z,99.94
2022-12-16T00:45:37.692Z,99.97
2022-12-16T00:48:59.770Z,100.00
2022-12-16T00:52:21.543Z,99.37
2022-12-16T00:55:44.344Z,100.00
2022-12-16T00:59:06.295Z,100.00
2022-12-16T01:02:28.339Z,100.00
2022-12-16T01:05:50.591Z,100.00
2022-12-16T01:09:12.440Z,100.00
2022-12-16T01:12:35.450Z,100.00
2022-12-16T01:16:01.791Z,99.52
2022-12-16T01:19:23.788Z,98.65
2022-12-16T01:22:48.726Z,99.10
2022-12-16T01:26:17.254Z,99.21
2022-12-16T01:29:39.195Z,99.34
2022-12-16T01:33:01.003Z,98.99
2022-12-16T01:36:23.077Z,97.91
2022-12-16T01:39:45.103Z,98.03
2022-12-16T01:43:14.057Z,98.97
2022-12-16T01:46:38.465Z,98.43
2022-12-16T01:50:11.456Z,99.29
2022-12-16T01:53:42.379Z,97.32
2022-12-16T01:57:12.138Z,96.62
2022-12-16T02:00:38.219Z,97.17
2022-12-16T02:04:03.338Z,95.59
2022-12-16T02:07:25.695Z,95.42
2022-12-16T02:11:17.490Z,93.45
2022-12-16T02:14:50.358Z,94.08
2022-12-16T02:18:50.900Z,92.54
2022-12-16T02:23:05.217Z,91.47
2022-12-16T02:27:05.144Z,91.36
2022-12-16T02:30:57.445Z,91.43
2022-12-16T02:34:37.361Z,92.03
2022-12-16T02:38:21.703Z,91.33
2022-12-16T02:42:13.392Z,92.31
2022-12-16T02:45:37.113Z,92.84
2022-12-16T02:49:32.073Z,91.26
2022-12-16T02:52:56.775Z,90.77
2022-12-16T02:56:21.560Z,90.07
2022-12-16T03:00:03.950Z,90.89
2022-12-16T03:04:08.499Z,89.98
2022-12-16T03:07:36.421Z,89.44
2022-12-16T03:11:02.764Z,87.61
2022-12-16T03:14:33.920Z,87.02
2022-12-16T03:17:59.676Z,86.64
2022-12-16T03:21:27.935Z,86.45
2022-12-16T03:24:50.072Z,86.23
2022-12-16T03:28:24.371Z,86.37
2022-12-16T03:32:03.166Z,86.71
2022-12-16T03:35:42.844Z,86.18
2022-12-16T03:39:08.164Z,86.34
2022-12-16T03:42:34.776Z,87.63
2022-12-16T03:46:04.622Z,87.04
2022-12-16T03:49:26.645Z,87.42
2022-12-16T03:52:48.616Z,88.17
2022-12-16T03:56:11.360Z,88.74
2022-12-16T03:59:34.290Z,88.56
2022-12-16T04:02:57.293Z,88.30
2022-12-16T04:06:19.326Z,86.97
2022-12-16T04:09:41.241Z,86.84
2022-12-16T04:13:35.514Z,85.49
2022-12-16T04:17:16.598Z,84.87
2022-12-16T04:21:07.704Z,83.71
2022-12-16T04:24:32.658Z,84.37
2022-12-16T04:27:54.514Z,84.27
2022-12-16T04:31:16.572Z,84.60
2022-12-16T04:34:39.507Z,84.70
2022-12-16T04:38:22.804Z,86.05
2022-12-16T04:42:03.174Z,85.44
2022-12-16T04:45:43.812Z,85.42
2022-12-16T04:49:28.655Z,85.89
2022-12-16T04:53:12.982Z,84.60
2022-12-16T04:56:56.332Z,84.20
2022-12-16T05:00:37.032Z,83.39
2022-12-16T05:04:28.905Z,82.76
2022-12-16T05:08:20.085Z,84.63
2022-12-16T05:12:00.705Z,85.77
2022-12-16T05:15:42.136Z,86.61
2022-12-16T05:19:27.041Z,87.20
2022-12-16T05:23:10.445Z,88.12
2022-12-16T05:26:52.439Z,87.68
2022-12-16T05:30:33.986Z,88.36
2022-12-16T05:34:15.429Z,89.13
2022-12-16T05:37:55.925Z,89.62
2022-12-16T05:41:36.202Z,89.95
2022-12-16T05:45:16.915Z,91.99
2022-12-16T05:48:58.436Z,91.53
2022-12-16T05:52:40.184Z,91.71
2022-12-16T05:56:20.397Z,92.63
2022-12-16T06:00:01.058Z,92.41
2022-12-16T06:03:51.014Z,93.72
2022-12-16T06:07:34.375Z,95.25
2022-12-16T06:11:14.604Z,94.60
2022-12-16T06:14:55.254Z,94.68
2022-12-16T06:18:35.940Z,94.13
2022-12-16T06:22:19.196Z,96.33
2022-12-16T06:26:00.091Z,95.99
2022-12-16T06:29:40.615Z,96.40
2022-12-16T06:33:22.261Z,96.47
2022-12-16T06:37:03.035Z,96.16
2022-12-16T06:40:46.911Z,97.13
2022-12-16T06:44:28.727Z,97.94
2022-12-16T06:48:29.087Z,98.46
2022-12-16T06:52:09.484Z,99.80
2022-12-16T06:55:50.577Z,99.69
2022-12-16T06:59:31.499Z,99.99
2022-12-16T07:03:12.518Z,100.00
2022-12-16T07:06:53.318Z,100.00
2022-12-16T07:10:37.365Z,100.00
2022-12-16T07:14:18.657Z,100.00
2022-12-16T07:18:04.007Z,100.00
2022-12-16T07:21:45.609Z,100.00
2022-12-16T07:25:27.027Z,100.00
2022-12-16T07:29:09.170Z,100.00
2022-12-16T07:32:49.796Z,100.00
2022-12-16T07:36:32.363Z,99.76
2022-12-16T07:40:12.633Z,100.00
2022-12-16T07:43:52.793Z,97.49
2022-12-16T07:47:33.106Z,97.42
2022-12-16T07:51:19.335Z,98.88
2022-12-16T07:55:00.517Z,99.13
2022-12-16T07:58:40.725Z,98.96
2022-12-16T08:02:20.977Z,98.36
2022-12-16T08:06:01.691Z,98.04
2022-12-16T08:09:50.379Z,98.91
2022-12-16T08:13:31.699Z,97.46
2022-12-16T08:17:13.567Z,98.69
2022-12-16T08:20:55.353Z,99.13
2022-12-16T08:24:36.070Z,98.49
2022-12-16T08:28:17.212Z,98.53
2022-12-16T08:31:57.491Z,98.59
2022-12-16T08:35:39.023Z,97.48
2022-12-16T08:39:20.472Z,96.38
2022-12-16T08:43:01.159Z,95.21
2022-12-16T08:46:42.036Z,93.79
2022-12-16T08:50:26.125Z,92.23
2022-12-16T08:54:06.707Z,90.31
2022-12-16T08:57:47.368Z,88.01
2022-12-16T09:01:28.230Z,85.90
2022-12-16T09:05:10.861Z,84.57
2022-12-16T09:08:51.465Z,82.99
2022-12-16T09:12:32.030Z,82.66
2022-12-16T09:16:19.271Z,82.62
2022-12-16T09:20:00.057Z,82.07
2022-12-16T09:23:40.709Z,78.59
2022-12-16T09:27:21.307Z,78.22
2022-12-16T09:31:02.348Z,76.59
2022-12-16T09:34:43.197Z,76.76
2022-12-16T09:38:23.517Z,76.81
2022-12-16T09:42:22.292Z,76.38
2022-12-16T09:46:15.124Z,76.74
2022-12-16T09:50:12.483Z,76.19
2022-12-16T09:53:56.571Z,75.49
2022-12-16T09:57:39.136Z,75.43
2022-12-16T10:01:20.495Z,76.30
2022-12-16T10:05:10.971Z,75.76
2022-12-16T10:09:03.525Z,73.71
2022-12-16T10:13:22.227Z,73.13
2022-12-16T10:17:32.215Z,74.15
2022-12-16T10:21:14.149Z,73.32
2022-12-16T10:25:03.226Z,73.40
2022-12-16T10:29:04.551Z,73.10
2022-12-16T10:33:10.053Z,72.25
2022-12-16T10:36:53.824Z,73.63
2022-12-16T10:40:39.584Z,73.66
2022-12-16T10:44:34.561Z,74.07
2022-12-16T10:48:23.267Z,75.39
2022-12-16T10:52:08.987Z,76.31
2022-12-16T10:56:24.092Z,75.86
2022-12-16T11:00:04.507Z,76.21
2022-12-16T11:03:49.664Z,76.54
2022-12-16T11:08:02.916Z,74.66
2022-12-16T11:11:46.222Z,75.26
2022-12-16T11:15:45.193Z,75.68
2022-12-16T11:19:48.885Z,75.00
2022-12-16T11:23:52.052Z,75.47
2022-12-16T11:27:42.099Z,74.20
2022-12-16T11:31:31.550Z,73.74
2022-12-16T11:35:18.892Z,73.63
2022-12-16T11:39:07.169Z,74.00
2022-12-16T11:43:16.736Z,74.05
2022-12-16T11:46:57.487Z,73.88
2022-12-16T11:50:45.993Z,73.18
2022-12-16T11:54:47.683Z,73.35
2022-12-16T11:58:54.240Z,72.20
2022-12-16T12:03:08.173Z,70.86
2022-12-16T12:07:03.447Z,68.99
2022-12-16T12:11:08.664Z,67.79
2022-12-16T12:15:06.002Z,67.44
2022-12-16T12:19:19.932Z,66.94
2022-12-16T12:23:00.160Z,67.44
2022-12-16T12:26:53.317Z,67.36
2022-12-16T12:30:41.060Z,67.54
2022-12-16T12:34:32.505Z,67.59
2022-12-16T12:38:27.357Z,66.43
2022-12-16T12:42:33.214Z,64.96
2022-12-16T12:46:28.043Z,64.87
2022-12-16T12:50:46.874Z,65.38
2022-12-16T12:54:45.174Z,65.97
2022-12-16T12:58:28.721Z,65.26
2022-12-16T13:02:12.691Z,65.22
2022-12-16T13:05:57.558Z,64.12
2022-12-16T13:09:54.603Z,65.01
2022-12-16T13:13:53.223Z,63.65
2022-12-16T13:17:37.943Z,61.68
2022-12-16T13:21:18.856Z,61.04
2022-12-16T13:25:08.484Z,61.40
2022-12-16T13:28:59.936Z,60.62
2022-12-16T13:32:46.197Z,60.75
2022-12-16T13:36:31.345Z,60.35
2022-12-16T13:40:37.579Z,59.37
2022-12-16T13:44:18.963Z,59.21
2022-12-16T13:48:01.462Z,59.25
2022-12-16T13:51:58.285Z,59.27
2022-12-16T13:55:49.051Z,59.03
2022-12-16T13:59:43.127Z,58.76
2022-12-16T14:03:52.124Z,58.02
2022-12-16T14:07:45.097Z,57.18
2022-12-16T14:11:45.950Z,57.12
2022-12-16T14:15:46.208Z,56.79
2022-12-16T14:19:47.413Z,57.82
2022-12-16T14:23:57.203Z,57.40
2022-12-16T14:27:40.900Z,57.11
2022-12-16T14:31:52.692Z,57.57
2022-12-16T14:35:42.689Z,59.19
2022-12-16T14:39:32.241Z,59.28
2022-12-16T14:43:13.374Z,60.37
2022-12-16T14:46:54.757Z,60.42
2022-12-16T14:50:49.148Z,60.79
2022-12-16T14:54:54.871Z,61.85
2022-12-16T14:58:39.241Z,62.14
2022-12-16T15:02:54.194Z,62.89
2022-12-16T15:06:47.913Z,63.97
2022-12-16T15:10:33.696Z,66.17
2022-12-16T15:14:19.021Z,66.56
2022-12-16T15:18:43.281Z,68.20
2022-12-16T15:22:23.973Z,69.25
2022-12-16T15:26:14.730Z,70.06
2022-12-16T15:30:03.792Z,69.15
2022-12-16T15:33:53.916Z,70.83
2022-12-16T15:37:48.293Z,73.83
2022-12-16T15:41:57.713Z,73.43
2022-12-16T15:45:51.093Z,77.77
2022-12-16T15:50:06.457Z,78.22
2022-12-16T15:53:56.190Z,77.77
2022-12-16T15:57:52.466Z,77.72
2022-12-16T16:01:44.462Z,81.94
2022-12-16T16:05:40.892Z,84.47
2022-12-16T16:09:47.476Z,84.75
2022-12-16T16:13:28.532Z,85.96
2022-12-16T16:17:09.863Z,84.75
2022-12-16T16:20:50.507Z,85.21
2022-12-16T16:24:31.228Z,87.12
2022-12-16T16:28:15.509Z,88.79
2022-12-16T16:32:10.061Z,89.72
2022-12-16T16:35:51.658Z,90.91
2022-12-16T16:39:33.391Z,92.90
2022-12-16T16:43:13.747Z,95.43
2022-12-16T16:46:59.981Z,97.31
2022-12-16T16:50:40.386Z,100.00
2022-12-16T16:54:21.880Z,100.00
2022-12-16T16:58:02.747Z,100.00
2022-12-16T17:01:42.971Z,100.00
2022-12-16T17:05:25.184Z,100.00
2022-12-16T17:09:07.618Z,100.00
2022-12-16T17:12:50.093Z,100.00
2022-12-16T17:16:33.147Z,100.00
2022-12-16T17:20:13.442Z,100.00
2022-12-16T17:23:55.724Z,100.00
2022-12-16T17:27:42.821Z,100.00
2022-12-16T17:31:29.723Z,100.00
2022-12-16T17:35:12.446Z,100.00
2022-12-16T17:39:13.720Z,100.00
2022-12-16T17:42:54.839Z,100.00
2022-12-16T17:46:37.400Z,100.00
2022-12-16T17:50:19.029Z,100.00
2022-12-16T17:54:02.056Z,100.00
2022-12-16T17:57:52.559Z,100.00
2022-12-16T18:01:32.982Z,100.00
2022-12-16T18:05:23.147Z,100.00
2022-12-16T18:09:13.892Z,100.00
2022-12-16T18:12:54.358Z,100.00
2022-12-16T18:16:38.526Z,100.00
2022-12-16T18:20:18.976Z,100.00
2022-12-16T18:24:03.023Z,100.00
2022-12-16T18:27:43.644Z,100.00
2022-12-16T18:31:25.766Z,100.00
2022-12-16T18:35:06.132Z,100.00
2022-12-16T18:38:47.153Z,100.00
2022-12-16T18:42:33.352Z,100.00
2022-12-16T18:46:14.173Z,100.00
2022-12-16T18:49:54.945Z,100.00
2022-12-16T18:53:40.640Z,100.00
2022-12-16T18:57:27.883Z,100.00
2022-12-16T19:01:20.519Z,100.00
2022-12-16T19:05:03.543Z,100.00
2022-12-16T19:08:47.112Z,100.00
2022-12-16T19:12:29.391Z,100.00
2022-12-16T19:16:15.928Z,100.00
2022-12-16T19:19:56.210Z,100.00
2022-12-16T19:23:37.774Z,100.00
2022-12-16T19:27:18.517Z,100.00
2022-12-16T19:30:58.766Z,100.00
2022-12-16T19:34:40.494Z,100.00
2022-12-16T19:38:23.360Z,100.00
2022-12-16T19:42:04.051Z,100.00
2022-12-16T19:45:44.678Z,100.00
2022-12-16T19:49:33.389Z,100.00
2022-12-16T19:53:14.298Z,100.00
2022-12-16T19:56:57.739Z,100.00
2022-12-16T20:00:39.734Z,100.00
2022-12-16T20:04:20.399Z,100.00
2022-12-16T20:08:01.718Z,100.00
2022-12-16T20:11:42.391Z,100.00
2022-12-16T20:15:23.165Z,100.00
2022-12-16T20:19:04.537Z,100.00
2022-12-16T20:22:46.357Z,100.00
2022-12-16T20:26:28.187Z,100.00
2022-12-16T20:30:09.310Z,100.00
2022-12-16T20:33:50.804Z,100.00
2022-12-16T20:37:31.907Z,100.00
2022-12-16T20:41:22.752Z,100.00
2022-12-16T20:45:05.021Z,100.00
2022-12-16T20:48:45.296Z,100.00
2022-12-16T20:52:26.116Z,100.00
2022-12-16T20:56:06.902Z,100.00
2022-12-16T20:59:56.702Z,100.00
2022-12-16T21:03:39.279Z,100.00
2022-12-16T21:07:21.609Z,100.00
2022-12-16T21:11:05.145Z,100.00
2022-12-16T21:14:45.862Z,100.00
2022-12-16T21:18:26.646Z,100.00
2022-12-16T21:22:08.034Z,100.00
2022-12-16T21:25:49.973Z,100.00
2022-12-16T21:29:33.946Z,100.00
2022-12-16T21:33:23.350Z,100.00
2022-12-16T21:37:04.239Z,100.00
2022-12-16T21:40:44.522Z,100.00
2022-12-16T21:44:24.709Z,100.00
2022-12-16T21:48:05.662Z,100.00
2022-12-16T21:51:46.232Z,100.00
2022-12-16T21:55:27.211Z,100.00
2022-12-16T21:59:09.443Z,100.00
2022-12-16T22:02:56.052Z,100.00
2022-12-16T22:06:36.849Z,100.00
2022-12-16T22:10:17.031Z,100.00
2022-12-16T22:13:58.135Z,100.00
2022-12-16T22:17:38.863Z,100.00
2022-12-16T22:21:23.239Z,100.00
2022-12-16T22:25:03.627Z,100.00
2022-12-16T22:28:44.489Z,100.00
2022-12-16T22:32:27.774Z,100.00
2022-12-16T22:36:25.632Z,100.00
2022-12-16T22:40:06.426Z,100.00
2022-12-16T22:43:51.317Z,100.00
2022-12-16T22:47:35.226Z,100.00
2022-12-16T22:51:21.806Z,100.00
2022-12-16T22:55:03.174Z,100.00
2022-12-16T22:58:45.646Z,100.00
2022-12-16T23:02:26.006Z,100.00
2022-12-16T23:06:12.015Z,100.00
2022-12-16T23:09:53.204Z,100.00
2022-12-16T23:13:38.872Z,100.00
2022-12-16T23:17:20.650Z,100.00
2022-12-16T23:21:06.492Z,100.00
2022-12-16T23:24:50.624Z,100.00
2022-12-16T23:28:30.725Z,100.00
2022-12-16T23:32:11.596Z,100.00
2022-12-16T23:36:00.836Z,100.00
2022-12-16T23:39:41.628Z,100.00
2022-12-16T23:43:22.849Z,100.00
2022-12-16T23:47:04.621Z,100.00
2022-12-16T23:50:45.094Z,100.00
2022-12-16T23:54:25.589Z,100.00
2022-12-16T23:58:05.926Z,100.00
